createdAt,value
2018-12-08T00:00:34.304Z,103.10
2018-12-08T00:03:02.913Z,104.47
2018-12-08T00:05:31.570Z,103.50
2018-12-08T00:08:00.342Z,99.50
2018-12-08T00:10:28.947Z,99.05
2018-12-08T00:12:57.706Z,100.47
2018-12-08T00:15:26.399Z,104.10
2018-12-08T00:17:55.058Z,100.18
2018-12-08T00:20:23.690Z,152.85
2018-12-08T00:22:52.323Z,173.55
2018-12-08T00:25:20.990Z,164.52
2018-12-08T00:27:49.617Z,187.35
2018-12-08T00:30:29.408Z,182.35
2018-12-08T00:32:58.074Z,165.70
2018-12-08T00:35:26.723Z,169.30
2018-12-08T00:37:55.335Z,183.78
2018-12-08T00:40:23.938Z,189.28
2018-12-08T00:42:52.610Z,185.88
2018-12-08T00:45:21.308Z,177.10
2018-12-08T00:47:49.969Z,140.88
2018-12-08T00:50:18.587Z,142.00
2018-12-08T00:52:47.473Z,148.13
2018-12-08T00:55:16.032Z,123.40
2018-12-08T00:57:44.639Z,120.17
2018-12-08T01:00:13.257Z,127.82
2018-12-08T01:02:41.921Z,114.50
2018-12-08T01:05:10.567Z,105.67
2018-12-08T01:07:39.212Z,131.75
2018-12-08T01:10:07.986Z,120.37
2018-12-08T01:12:36.605Z,130.95
2018-12-08T01:15:05.604Z,129.10
2018-12-08T01:17:34.261Z,91.70
2018-12-08T01:20:03.027Z,98.75
2018-12-08T01:22:31.630Z,88.45
2018-12-08T01:25:00.299Z,82.92
2018-12-08T01:27:28.874Z,76.22
2018-12-08T01:29:57.474Z,67.32
2018-12-08T01:32:26.146Z,77.62
2018-12-08T01:34:54.840Z,76.28
2018-12-08T01:37:23.461Z,88.52
2018-12-08T01:39:52.040Z,84.75
2018-12-08T01:42:20.676Z,82.65
2018-12-08T01:44:49.351Z,87.65
2018-12-08T01:47:17.952Z,96.65
2018-12-08T01:49:46.551Z,88.22
2018-12-08T01:52:15.187Z,86.63
2018-12-08T01:54:43.925Z,87.55
2018-12-08T01:57:12.577Z,80.70
2018-12-08T01:59:41.299Z,82.55
2018-12-08T02:02:09.959Z,69.53
2018-12-08T02:04:38.611Z,77.55
2018-12-08T02:07:07.387Z,87.82
2018-12-08T02:09:36.128Z,96.92
2018-12-08T02:12:04.927Z,95.03
2018-12-08T02:14:33.578Z,98.03
2018-12-08T02:17:02.314Z,104.90
2018-12-08T02:19:31.055Z,100.15
2018-12-08T02:21:59.787Z,95.65
2018-12-08T02:24:28.439Z,82.15
2018-12-08T02:26:57.151Z,79.62
2018-12-08T02:29:25.807Z,92.30
2018-12-08T02:31:54.468Z,82.00
2018-12-08T02:34:23.113Z,88.72
2018-12-08T02:36:51.774Z,75.08
2018-12-08T02:39:20.418Z,94.58
2018-12-08T02:41:49.071Z,92.90
2018-12-08T02:44:18.141Z,80.75
2018-12-08T02:46:46.763Z,74.60
2018-12-08T02:49:17.512Z,60.23
2018-12-08T02:51:46.291Z,48.52
2018-12-08T02:54:15.477Z,62.83
2018-12-08T02:56:44.147Z,49.90
2018-12-08T02:59:12.816Z,53.68
2018-12-08T03:01:41.459Z,61.48
2018-12-08T03:04:10.191Z,71.33
2018-12-08T03:06:38.899Z,73.25
2018-12-08T03:09:09.336Z,73.87
2018-12-08T03:11:38.001Z,82.12
2018-12-08T03:14:06.675Z,73.07
2018-12-08T03:16:35.350Z,74.70
2018-12-08T03:19:03.949Z,79.87
2018-12-08T03:21:32.587Z,86.78
2018-12-08T03:24:01.193Z,82.97
2018-12-08T03:26:29.795Z,78.17
2018-12-08T03:28:58.406Z,79.85
2018-12-08T03:31:27.022Z,72.58
2018-12-08T03:33:55.591Z,73.60
2018-12-08T03:36:24.241Z,77.00
2018-12-08T03:38:52.816Z,81.17
2018-12-08T03:41:21.449Z,83.60
2018-12-08T03:43:50.045Z,74.12
2018-12-08T03:46:18.689Z,68.28
2018-12-08T03:48:47.318Z,64.87
2018-12-08T03:51:15.919Z,65.90
2018-12-08T03:53:44.611Z,66.80
2018-12-08T03:56:13.199Z,70.47
2018-12-08T03:58:41.849Z,67.53
2018-12-08T04:01:10.460Z,69.90
2018-12-08T04:03:39.228Z,65.67
2018-12-08T04:06:07.885Z,59.70
2018-12-08T04:08:36.565Z,56.25
2018-12-08T04:11:05.228Z,54.83
2018-12-08T04:13:33.914Z,55.78
2018-12-08T04:16:02.651Z,54.60
2018-12-08T04:18:31.310Z,53.40
2018-12-08T04:20:59.973Z,52.98
2018-12-08T04:23:28.590Z,54.13
2018-12-08T04:25:57.240Z,52.27
2018-12-08T04:28:25.893Z,57.90
2018-12-08T04:30:54.562Z,60.03
2018-12-08T04:33:23.126Z,58.92
2018-12-08T04:35:51.740Z,58.55
2018-12-08T04:38:20.354Z,58.63
2018-12-08T04:40:48.949Z,57.98
2018-12-08T04:43:17.583Z,52.83
2018-12-08T04:45:46.314Z,52.33
2018-12-08T04:48:15.007Z,53.52
2018-12-08T04:50:43.621Z,54.35
2018-12-08T04:53:12.339Z,54.48
2018-12-08T04:55:40.962Z,52.50
2018-12-08T04:58:09.546Z,52.45
2018-12-08T05:00:38.211Z,56.95
2018-12-08T05:03:06.819Z,58.42
2018-12-08T05:05:35.464Z,59.95
2018-12-08T05:08:04.071Z,73.55
2018-12-08T05:10:32.643Z,71.90
2018-12-08T05:13:01.239Z,64.82
2018-12-08T05:15:29.819Z,61.92
2018-12-08T05:17:58.477Z,65.40
2018-12-08T05:20:27.057Z,63.10
2018-12-08T05:22:55.811Z,63.35
2018-12-08T05:25:24.794Z,54.30
2018-12-08T05:27:53.560Z,55.12
2018-12-08T05:30:22.290Z,54.48
2018-12-08T05:32:50.979Z,55.80
2018-12-08T05:35:19.610Z,50.95
2018-12-08T05:37:48.228Z,53.63
2018-12-08T05:40:16.808Z,56.08
2018-12-08T05:42:45.347Z,48.10
2018-12-08T05:45:13.987Z,48.73
2018-12-08T05:47:42.586Z,48.20
2018-12-08T05:50:11.215Z,51.65
2018-12-08T05:52:40.121Z,54.70
2018-12-08T05:55:08.447Z,51.37
2018-12-08T05:57:37.062Z,49.67
2018-12-08T06:00:09.440Z,50.40
2018-12-08T06:02:38.077Z,60.58
2018-12-08T06:05:07.683Z,55.92
2018-12-08T06:07:36.259Z,59.90
2018-12-08T06:10:05.685Z,63.83
2018-12-08T06:12:34.339Z,65.72
2018-12-08T06:15:02.970Z,64.17
2018-12-08T06:17:31.803Z,66.28
2018-12-08T06:20:00.521Z,60.55
2018-12-08T06:22:29.135Z,59.88
2018-12-08T06:24:57.740Z,59.90
2018-12-08T06:27:33.666Z,53.95
2018-12-08T06:30:05.855Z,56.48
2018-12-08T06:32:34.415Z,51.70
2018-12-08T06:35:03.042Z,55.63
2018-12-08T06:37:31.680Z,54.30
2018-12-08T06:40:00.287Z,56.50
2018-12-08T06:42:28.916Z,56.47
2018-12-08T06:44:57.812Z,57.03
2018-12-08T06:47:26.359Z,58.67
2018-12-08T06:49:55.217Z,59.37
2018-12-08T06:52:23.859Z,59.87
2018-12-08T06:54:52.449Z,57.97
2018-12-08T06:57:21.057Z,59.10
2018-12-08T06:59:49.657Z,68.13
2018-12-08T07:02:18.295Z,63.03
2018-12-08T07:04:46.941Z,64.97
2018-12-08T07:07:15.559Z,64.47
2018-12-08T07:09:44.171Z,70.00
2018-12-08T07:12:13.297Z,64.30
2018-12-08T07:14:41.891Z,65.63
2018-12-08T07:17:10.590Z,72.37
2018-12-08T07:19:39.252Z,83.63
2018-12-08T07:22:08.127Z,82.70
2018-12-08T07:24:36.707Z,70.03
2018-12-08T07:27:05.366Z,70.43
2018-12-08T07:29:34.045Z,80.07
2018-12-08T07:32:02.666Z,64.27
2018-12-08T07:34:31.331Z,76.10
2018-12-08T07:37:00.007Z,87.77
2018-12-08T07:39:28.608Z,104.33
2018-12-08T07:41:57.296Z,106.77
2018-12-08T07:44:25.958Z,112.03
2018-12-08T07:46:54.615Z,137.03
2018-12-08T07:49:23.287Z,122.73
2018-12-08T07:51:51.908Z,126.27
2018-12-08T07:54:20.510Z,117.03
2018-12-08T07:56:49.209Z,121.87
2018-12-08T07:59:17.792Z,125.90
2018-12-08T08:01:46.527Z,113.53
2018-12-08T08:04:15.163Z,121.40
2018-12-08T08:06:43.868Z,97.77
2018-12-08T08:09:12.465Z,86.97
2018-12-08T08:11:41.231Z,81.03
2018-12-08T08:14:09.985Z,77.80
2018-12-08T08:16:38.926Z,67.20
2018-12-08T08:19:07.560Z,64.63
2018-12-08T08:21:36.216Z,65.43
2018-12-08T08:24:04.914Z,60.83
2018-12-08T08:26:33.541Z,62.27
2018-12-08T08:29:02.219Z,63.53
2018-12-08T08:31:30.996Z,66.40
2018-12-08T08:33:59.624Z,58.33
2018-12-08T08:36:28.329Z,55.57
2018-12-08T08:38:57.013Z,57.40
2018-12-08T08:41:25.617Z,59.27
2018-12-08T08:43:56.213Z,64.10
2018-12-08T08:46:24.956Z,68.73
2018-12-08T08:48:53.835Z,64.30
2018-12-08T08:51:22.484Z,71.83
2018-12-08T08:53:51.406Z,69.57
2018-12-08T08:56:19.990Z,66.80
2018-12-08T08:58:49.039Z,72.30
2018-12-08T09:01:17.944Z,74.73
2018-12-08T09:03:46.590Z,74.70
2018-12-08T09:06:15.227Z,71.23
2018-12-08T09:08:43.863Z,71.23
2018-12-08T09:11:12.552Z,71.93
2018-12-08T09:13:41.222Z,76.63
2018-12-08T09:16:09.850Z,74.50
2018-12-08T09:18:38.489Z,81.30
2018-12-08T09:21:07.102Z,78.80
2018-12-08T09:23:35.784Z,80.70
2018-12-08T09:26:04.414Z,76.20
2018-12-08T09:28:33.005Z,71.60
2018-12-08T09:31:01.637Z,74.87
2018-12-08T09:33:30.254Z,76.00
2018-12-08T09:35:58.864Z,73.93
2018-12-08T09:38:27.474Z,63.40
2018-12-08T09:40:56.072Z,67.03
2018-12-08T09:43:25.015Z,64.00
2018-12-08T09:45:53.800Z,65.20
2018-12-08T09:48:22.484Z,66.43
2018-12-08T09:50:51.240Z,68.70
2018-12-08T09:53:20.421Z,64.73
2018-12-08T09:55:49.053Z,58.73
2018-12-08T09:58:17.743Z,61.23
2018-12-08T10:00:46.377Z,62.33
2018-12-08T10:03:15.013Z,64.03
2018-12-08T10:05:43.652Z,65.03
2018-12-08T10:08:12.305Z,58.53
2018-12-08T10:10:40.937Z,55.33
2018-12-08T10:13:09.603Z,56.83
2018-12-08T10:15:38.293Z,52.67
2018-12-08T10:18:06.994Z,53.57
2018-12-08T10:20:35.587Z,50.57
2018-12-08T10:23:04.330Z,51.03
2018-12-08T10:25:32.926Z,49.10
2018-12-08T10:28:01.551Z,47.70
2018-12-08T10:30:30.233Z,49.33
2018-12-08T10:32:58.912Z,50.33
2018-12-08T10:35:27.535Z,46.03
2018-12-08T10:37:56.182Z,45.13
2018-12-08T10:40:24.881Z,47.23
2018-12-08T10:42:53.519Z,45.77
2018-12-08T10:45:22.225Z,47.63
2018-12-08T10:47:50.820Z,44.63
2018-12-08T10:50:19.516Z,45.53
2018-12-08T10:52:48.129Z,48.33
2018-12-08T10:55:16.784Z,50.13
2018-12-08T10:57:45.454Z,51.50
2018-12-08T11:00:21.638Z,47.47
2018-12-08T11:02:53.482Z,46.10
2018-12-08T11:05:22.395Z,52.13
2018-12-08T11:07:51.053Z,48.13
2018-12-08T11:10:19.673Z,50.87
2018-12-08T11:12:48.312Z,55.57
2018-12-08T11:15:16.974Z,56.77
2018-12-08T11:17:45.582Z,59.60
2018-12-08T11:20:14.189Z,58.47
2018-12-08T11:22:42.815Z,60.57
2018-12-08T11:25:11.591Z,66.40
2018-12-08T11:27:40.230Z,69.80
2018-12-08T11:30:09.173Z,68.73
2018-12-08T11:32:37.829Z,69.90
2018-12-08T11:35:06.511Z,71.60
2018-12-08T11:37:35.137Z,76.43
2018-12-08T11:40:04.173Z,71.83
2018-12-08T11:42:32.863Z,75.03
2018-12-08T11:45:01.661Z,73.10
2018-12-08T11:47:30.298Z,64.73
2018-12-08T11:49:58.912Z,54.27
2018-12-08T11:52:27.578Z,63.93
2018-12-08T11:54:56.253Z,56.87
2018-12-08T11:57:24.939Z,58.17
2018-12-08T11:59:53.606Z,56.90
2018-12-08T12:02:22.255Z,55.80
2018-12-08T12:04:50.920Z,56.40
2018-12-08T12:07:19.569Z,50.47
2018-12-08T12:09:48.336Z,51.90
2018-12-08T12:12:17.026Z,51.17
2018-12-08T12:14:49.098Z,52.77
2018-12-08T12:17:17.748Z,54.23
2018-12-08T12:19:46.436Z,57.30
2018-12-08T12:22:15.043Z,58.57
2018-12-08T12:24:43.627Z,59.20
2018-12-08T12:27:12.235Z,61.13
2018-12-08T12:29:40.834Z,63.40
2018-12-08T12:32:09.466Z,57.17
2018-12-08T12:34:38.090Z,55.50
2018-12-08T12:37:06.737Z,54.10
2018-12-08T12:39:35.471Z,57.23
2018-12-08T12:42:04.553Z,55.67
2018-12-08T12:44:33.331Z,54.40
2018-12-08T12:47:01.952Z,52.17
2018-12-08T12:49:30.661Z,45.33
2018-12-08T12:51:59.284Z,46.03
2018-12-08T12:54:27.911Z,44.03
2018-12-08T12:56:56.581Z,43.80
2018-12-08T12:59:25.198Z,43.43
2018-12-08T13:01:53.984Z,43.33
2018-12-08T13:04:22.574Z,43.20
2018-12-08T13:06:51.188Z,44.20
2018-12-08T13:09:19.790Z,44.17
2018-12-08T13:11:48.602Z,45.60
2018-12-08T13:14:17.275Z,47.20
2018-12-08T13:16:45.877Z,44.97
2018-12-08T13:19:14.423Z,50.40
2018-12-08T13:21:42.988Z,51.00
2018-12-08T13:24:11.628Z,56.87
2018-12-08T13:26:40.249Z,54.80
2018-12-08T13:29:08.850Z,52.93
2018-12-08T13:31:37.424Z,55.50
2018-12-08T13:34:22.972Z,47.80
2018-12-08T13:36:51.591Z,46.13
2018-12-08T13:39:20.512Z,46.23
2018-12-08T13:41:49.168Z,46.57
2018-12-08T13:44:34.851Z,46.57
2018-12-08T13:47:03.710Z,45.67
2018-12-08T13:49:32.744Z,47.97
2018-12-08T13:52:01.428Z,51.53
2018-12-08T13:54:48.104Z,47.40
2018-12-08T13:57:16.749Z,46.07
2018-12-08T13:59:53.949Z,46.83
2018-12-08T14:02:22.733Z,43.73
2018-12-08T14:04:51.300Z,43.77
2018-12-08T14:07:19.918Z,45.10
2018-12-08T14:09:48.516Z,44.40
2018-12-08T14:12:17.882Z,47.83
2018-12-08T14:14:46.484Z,49.50
2018-12-08T14:17:23.798Z,51.40
2018-12-08T14:19:52.451Z,53.30
2018-12-08T14:22:21.028Z,51.00
2018-12-08T14:24:49.590Z,50.93
2018-12-08T14:27:18.239Z,50.97
2018-12-08T14:29:46.978Z,52.13
2018-12-08T14:32:15.587Z,55.80
2018-12-08T14:34:44.160Z,58.03
2018-12-08T14:37:12.812Z,66.17
2018-12-08T14:39:41.451Z,68.33
2018-12-08T14:42:10.111Z,80.53
2018-12-08T14:44:38.806Z,78.43
2018-12-08T14:47:07.453Z,79.67
2018-12-08T14:49:36.047Z,83.57
2018-12-08T14:52:04.625Z,83.80
2018-12-08T14:54:33.226Z,78.30
2018-12-08T14:57:01.889Z,73.80
2018-12-08T14:59:30.524Z,67.03
2018-12-08T15:01:59.161Z,70.27
2018-12-08T15:04:27.785Z,60.33
2018-12-08T15:06:56.406Z,64.93
2018-12-08T15:09:24.927Z,66.80
2018-12-08T15:11:53.621Z,63.97
2018-12-08T15:14:22.226Z,60.77
2018-12-08T15:16:50.950Z,70.20
2018-12-08T15:19:20.407Z,71.93
2018-12-08T15:21:49.012Z,62.73
2018-12-08T15:24:17.679Z,64.70
2018-12-08T15:26:46.283Z,58.40
2018-12-08T15:29:14.925Z,62.27
2018-12-08T15:31:43.566Z,59.63
2018-12-08T15:34:12.145Z,62.33
2018-12-08T15:36:40.754Z,67.00
2018-12-08T15:39:09.541Z,64.77
2018-12-08T15:41:38.143Z,67.17
2018-12-08T15:44:06.880Z,67.00
2018-12-08T15:46:35.473Z,67.17
2018-12-08T15:49:04.227Z,67.03
2018-12-08T15:51:32.815Z,69.60
2018-12-08T15:54:01.420Z,69.63
2018-12-08T15:56:30.072Z,75.40
2018-12-08T15:58:58.679Z,90.03
2018-12-08T16:01:27.269Z,86.83
2018-12-08T16:03:55.869Z,107.33
2018-12-08T16:06:24.467Z,97.23
2018-12-08T16:08:53.101Z,93.00
2018-12-08T16:11:21.694Z,104.13
2018-12-08T16:13:50.338Z,90.20
2018-12-08T16:16:19.076Z,84.83
2018-12-08T16:18:47.722Z,89.80
2018-12-08T16:21:16.642Z,89.83
2018-12-08T16:23:45.355Z,94.97
2018-12-08T16:26:13.966Z,87.37
2018-12-08T16:28:42.559Z,99.07
2018-12-08T16:31:11.156Z,96.77
2018-12-08T16:33:39.743Z,93.57
2018-12-08T16:36:08.393Z,95.73
2018-12-08T16:38:37.002Z,96.47
2018-12-08T16:41:05.693Z,97.17
2018-12-08T16:43:34.426Z,95.70
2018-12-08T16:46:02.965Z,96.90
2018-12-08T16:48:31.598Z,114.53
2018-12-08T16:51:00.202Z,162.10
2018-12-08T16:53:28.765Z,172.67
2018-12-08T16:55:57.545Z,162.70
2018-12-08T16:58:26.201Z,139.77
2018-12-08T17:00:54.868Z,137.50
2018-12-08T17:03:23.465Z,123.37
2018-12-08T17:05:52.115Z,122.60
2018-12-08T17:08:20.845Z,106.10
2018-12-08T17:10:49.467Z,96.93
2018-12-08T17:13:18.088Z,86.63
2018-12-08T17:15:46.733Z,81.17
2018-12-08T17:18:15.349Z,85.27
2018-12-08T17:20:44.767Z,82.50
2018-12-08T17:23:13.561Z,80.17
2018-12-08T17:25:42.197Z,84.40
2018-12-08T17:28:11.656Z,82.63
2018-12-08T17:30:40.313Z,82.07
2018-12-08T17:33:08.886Z,102.50
2018-12-08T17:35:37.596Z,89.47
2018-12-08T17:38:06.199Z,126.87
2018-12-08T17:40:34.837Z,89.83
2018-12-08T17:43:03.550Z,72.33
2018-12-08T17:45:32.288Z,61.07
2018-12-08T17:48:00.907Z,61.40
2018-12-08T17:50:29.487Z,56.77
2018-12-08T17:52:58.073Z,111.87
2018-12-08T17:55:26.664Z,107.07
2018-12-08T17:57:55.256Z,93.10
2018-12-08T18:00:23.901Z,97.70
2018-12-08T18:02:52.637Z,86.83
2018-12-08T18:05:21.335Z,78.70
2018-12-08T18:07:50.077Z,77.87
2018-12-08T18:10:18.788Z,74.20
2018-12-08T18:12:47.360Z,58.33
2018-12-08T18:15:16.083Z,72.03
2018-12-08T18:17:44.789Z,77.00
2018-12-08T18:20:13.547Z,74.73
2018-12-08T18:22:42.299Z,92.97
2018-12-08T18:25:11.160Z,94.17
2018-12-08T18:27:39.992Z,96.53
2018-12-08T18:30:11.969Z,99.20
2018-12-08T18:32:40.592Z,91.30
2018-12-08T18:35:09.211Z,94.90
2018-12-08T18:37:37.848Z,95.33
2018-12-08T18:40:06.892Z,96.63
2018-12-08T18:42:35.820Z,91.93
2018-12-08T18:45:04.776Z,95.33
2018-12-08T18:47:33.770Z,98.87
2018-12-08T18:50:02.409Z,117.87
2018-12-08T18:52:31.016Z,121.60
2018-12-08T18:54:59.609Z,103.47
2018-12-08T18:57:28.245Z,84.50
2018-12-08T18:59:56.837Z,92.93
2018-12-08T19:02:25.439Z,103.33
2018-12-08T19:04:54.050Z,96.17
2018-12-08T19:07:22.644Z,95.03
2018-12-08T19:09:51.267Z,102.97
2018-12-08T19:12:19.861Z,99.13
2018-12-08T19:14:48.521Z,129.07
2018-12-08T19:17:17.125Z,132.40
2018-12-08T19:19:45.735Z,195.93
2018-12-08T19:22:14.346Z,180.60
2018-12-08T19:24:42.934Z,159.83
2018-12-08T19:27:11.554Z,185.83
2018-12-08T19:29:40.145Z,187.33
2018-12-08T19:32:08.747Z,165.33
2018-12-08T19:34:37.379Z,159.80
2018-12-08T19:37:06.019Z,118.30
2018-12-08T19:39:34.592Z,172.60
2018-12-08T19:42:03.195Z,168.40
2018-12-08T19:44:31.829Z,186.63
2018-12-08T19:47:00.480Z,182.60
2018-12-08T19:49:29.074Z,175.90
2018-12-08T19:51:57.686Z,185.40
2018-12-08T19:54:26.302Z,189.17
2018-12-08T19:56:54.981Z,215.13
2018-12-08T19:59:23.588Z,196.27
2018-12-08T20:01:52.219Z,225.10
2018-12-08T20:04:20.819Z,197.63
2018-12-08T20:06:49.568Z,177.93
2018-12-08T20:09:18.163Z,128.13
2018-12-08T20:11:46.769Z,131.47
2018-12-08T20:14:15.366Z,154.70
2018-12-08T20:16:43.967Z,159.03
2018-12-08T20:19:12.600Z,165.63
2018-12-08T20:21:41.230Z,165.67
2018-12-08T20:24:10.117Z,167.67
2018-12-08T20:26:38.756Z,160.50
2018-12-08T20:29:07.564Z,158.23
2018-12-08T20:31:36.165Z,133.53
2018-12-08T20:34:04.763Z,133.37
2018-12-08T20:36:33.364Z,111.20
2018-12-08T20:39:01.993Z,130.73
2018-12-08T20:41:30.741Z,125.10
2018-12-08T20:43:59.857Z,134.03
2018-12-08T20:46:28.516Z,141.67
2018-12-08T20:48:57.213Z,140.00
2018-12-08T20:51:25.850Z,141.03
2018-12-08T20:53:54.485Z,137.23
2018-12-08T20:56:23.091Z,131.90
2018-12-08T20:58:51.689Z,129.60
2018-12-08T21:01:20.389Z,112.27
2018-12-08T21:03:48.993Z,104.53
2018-12-08T21:06:17.625Z,101.60
2018-12-08T21:08:46.253Z,90.67
2018-12-08T21:11:14.895Z,88.53
2018-12-08T21:13:43.535Z,85.43
2018-12-08T21:16:12.184Z,80.97
2018-12-08T21:18:40.759Z,84.53
2018-12-08T21:21:09.408Z,80.40
2018-12-08T21:23:38.032Z,81.57
2018-12-08T21:26:06.607Z,79.43
2018-12-08T21:28:35.305Z,83.83
2018-12-08T21:31:03.849Z,81.87
2018-12-08T21:33:32.497Z,79.43
2018-12-08T21:36:01.126Z,77.90
2018-12-08T21:38:29.717Z,84.97
2018-12-08T21:40:58.345Z,82.23
2018-12-08T21:43:26.979Z,78.30
2018-12-08T21:45:55.580Z,81.60
2018-12-08T21:48:24.184Z,79.53
2018-12-08T21:50:52.756Z,81.83
2018-12-08T21:53:21.311Z,81.97
2018-12-08T21:55:49.913Z,77.23
2018-12-08T21:58:18.499Z,73.83
2018-12-08T22:00:47.249Z,72.97
2018-12-08T22:03:15.836Z,67.27
2018-12-08T22:05:44.491Z,72.63
2018-12-08T22:08:13.209Z,68.97
2018-12-08T22:10:41.819Z,66.43
2018-12-08T22:13:10.364Z,70.43
2018-12-08T22:15:39.091Z,72.57
2018-12-08T22:18:07.683Z,74.60
2018-12-08T22:20:36.290Z,77.17
2018-12-08T22:23:04.894Z,70.10
2018-12-08T22:25:33.495Z,73.87
2018-12-08T22:28:02.216Z,82.63
2018-12-08T22:30:30.827Z,84.37
2018-12-08T22:32:59.491Z,83.60
2018-12-08T22:35:28.164Z,83.43
2018-12-08T22:37:56.855Z,85.90
2018-12-08T22:40:25.443Z,87.43
2018-12-08T22:42:54.090Z,86.50
2018-12-08T22:45:22.698Z,82.10
2018-12-08T22:47:51.331Z,82.60
2018-12-08T22:50:20.009Z,79.33
2018-12-08T22:52:48.575Z,81.50
2018-12-08T22:55:17.161Z,79.53
2018-12-08T22:57:45.775Z,80.23
2018-12-08T23:00:24.425Z,76.70
2018-12-08T23:02:53.060Z,79.00
2018-12-08T23:05:21.769Z,78.20
2018-12-08T23:07:50.365Z,79.83
2018-12-08T23:10:18.982Z,78.17
2018-12-08T23:12:47.570Z,82.17
2018-12-08T23:15:16.774Z,78.93
2018-12-08T23:17:45.404Z,84.43
2018-12-08T23:20:14.063Z,81.83
2018-12-08T23:22:42.695Z,86.93
2018-12-08T23:25:11.438Z,86.57
2018-12-08T23:27:40.050Z,89.33
2018-12-08T23:30:09.366Z,86.60
2018-12-08T23:32:37.955Z,88.67
2018-12-08T23:35:06.848Z,90.97
2018-12-08T23:37:35.466Z,83.80
2018-12-08T23:40:04.211Z,84.40
2018-12-08T23:42:32.889Z,90.07
2018-12-08T23:45:01.507Z,83.83
2018-12-08T23:47:30.090Z,79.67
2018-12-08T23:49:58.747Z,80.07
2018-12-08T23:52:27.308Z,82.37
2018-12-08T23:54:55.957Z,87.33
2018-12-08T23:57:24.608Z,81.97
2018-12-08T23:59:53.149Z,84.77
